createdAt,value
2018-02-19T00:00:31.287Z,91.40
2018-02-19T00:02:58.845Z,91.60
2018-02-19T00:05:26.407Z,91.50
2018-02-19T00:07:54.688Z,91.50
2018-02-19T00:10:22.244Z,91.40
2018-02-19T00:12:49.807Z,91.40
2018-02-19T00:15:17.568Z,91.30
2018-02-19T00:17:45.162Z,91.40
2018-02-19T00:20:11.978Z,91.40
2018-02-19T00:22:38.816Z,91.40
2018-02-19T00:25:05.557Z,91.40
2018-02-19T00:27:33.120Z,91.40
2018-02-19T00:30:00.679Z,91.40
2018-02-19T00:32:27.318Z,91.40
2018-02-19T00:34:54.876Z,91.40
2018-02-19T00:37:21.619Z,91.40
2018-02-19T00:39:49.183Z,91.70
2018-02-19T00:42:16.744Z,91.70
2018-02-19T00:44:44.300Z,91.50
2018-02-19T00:47:11.045Z,91.50
2018-02-19T00:49:37.888Z,91.30
2018-02-19T00:52:05.036Z,91.20
2018-02-19T00:54:32.698Z,90.90
2018-02-19T00:56:59.543Z,90.90
2018-02-19T00:59:26.287Z,91.20
2018-02-19T01:01:53.039Z,91.20
2018-02-19T01:04:19.869Z,91.20
2018-02-19T01:06:47.430Z,91.70
2018-02-19T01:09:14.990Z,91.90
2018-02-19T01:11:42.550Z,91.90
2018-02-19T01:14:10.112Z,91.60
2018-02-19T01:16:37.671Z,91.20
2018-02-19T01:19:05.232Z,91.20
2018-02-19T01:21:32.689Z,91.10
2018-02-19T01:24:00.250Z,91.10
2018-02-19T01:26:27.810Z,91.10
2018-02-19T01:28:55.475Z,91.10
2018-02-19T01:31:24.058Z,90.80
2018-02-19T01:33:51.413Z,90.30
2018-02-19T01:36:18.256Z,90.30
2018-02-19T01:38:45.105Z,90.10
2018-02-19T01:41:12.672Z,90.10
2018-02-19T01:43:39.404Z,90.00
2018-02-19T01:46:06.246Z,90.10
2018-02-19T01:48:33.098Z,90.00
2018-02-19T01:50:59.934Z,90.10
2018-02-19T01:53:26.778Z,90.30
2018-02-19T01:55:54.440Z,90.20
2018-02-19T01:58:21.079Z,90.20
2018-02-19T02:00:48.638Z,90.60
2018-02-19T02:03:16.199Z,90.80
2018-02-19T02:05:43.549Z,91.40
2018-02-19T02:08:10.295Z,91.40
2018-02-19T02:10:36.817Z,91.60
2018-02-19T02:13:03.363Z,91.80
2018-02-19T02:15:30.731Z,91.90
2018-02-19T02:17:58.051Z,91.60
2018-02-19T02:20:24.700Z,91.60
2018-02-19T02:22:51.357Z,91.70
2018-02-19T02:25:17.889Z,91.80
2018-02-19T02:27:44.534Z,91.90
2018-02-19T02:30:11.164Z,92.00
2018-02-19T02:32:39.337Z,92.10
2018-02-19T02:35:05.876Z,92.00
2018-02-19T02:37:33.210Z,92.20
2018-02-19T02:39:59.721Z,92.20
2018-02-19T02:42:26.285Z,92.10
2018-02-19T02:44:52.942Z,92.20
2018-02-19T02:47:19.482Z,92.30
2018-02-19T02:49:46.016Z,92.30
2018-02-19T02:52:34.724Z,92.50
2018-02-19T02:55:01.124Z,93.00
2018-02-19T02:57:27.557Z,93.50
2018-02-19T02:59:54.740Z,93.70
2018-02-19T03:02:21.906Z,93.40
2018-02-19T03:04:48.341Z,93.40
2018-02-19T03:07:14.736Z,93.10
2018-02-19T03:09:41.136Z,92.80
2018-02-19T03:12:07.591Z,92.60
2018-02-19T03:14:33.992Z,92.30
2018-02-19T03:17:00.424Z,92.40
2018-02-19T03:19:26.852Z,92.40
2018-02-19T03:21:53.427Z,92.30
2018-02-19T03:24:20.620Z,91.80
2018-02-19T03:26:47.040Z,91.80
2018-02-19T03:29:13.426Z,91.80
2018-02-19T03:31:39.812Z,91.30
2018-02-19T03:34:06.235Z,91.20
2018-02-19T03:36:33.405Z,90.80
2018-02-19T03:39:00.548Z,90.80
2018-02-19T03:41:27.008Z,90.80
2018-02-19T03:43:53.390Z,90.90
2018-02-19T03:46:19.777Z,90.90
2018-02-19T03:48:46.259Z,91.00
2018-02-19T03:51:12.635Z,90.90
2018-02-19T03:53:39.060Z,90.80
2018-02-19T03:56:05.465Z,90.80
2018-02-19T03:58:31.869Z,90.80
2018-02-19T04:00:58.243Z,90.80
2018-02-19T04:03:25.462Z,90.90
2018-02-19T04:05:51.889Z,90.60
2018-02-19T04:08:18.295Z,90.60
2018-02-19T04:10:45.734Z,90.60
2018-02-19T04:13:12.158Z,90.60
2018-02-19T04:15:38.558Z,90.60
2018-02-19T04:18:04.987Z,90.70
2018-02-19T04:20:32.190Z,90.60
2018-02-19T04:22:58.604Z,90.60
2018-02-19T04:25:25.746Z,90.70
2018-02-19T04:27:52.131Z,90.70
2018-02-19T04:30:18.795Z,90.70
2018-02-19T04:32:45.243Z,90.50
2018-02-19T04:35:11.631Z,90.40
2018-02-19T04:37:38.032Z,90.40
2018-02-19T04:40:05.200Z,90.30
2018-02-19T04:42:32.660Z,90.30
2018-02-19T04:45:09.062Z,90.00
2018-02-19T04:47:35.474Z,89.60
2018-02-19T04:50:05.771Z,89.30
2018-02-19T04:52:32.949Z,89.60
2018-02-19T04:54:59.336Z,89.60
2018-02-19T04:57:25.720Z,89.60
2018-02-19T04:59:52.149Z,89.60
2018-02-19T05:02:18.579Z,89.60
2018-02-19T05:04:45.003Z,89.50
2018-02-19T05:07:11.403Z,88.80
2018-02-19T05:09:38.573Z,89.10
2018-02-19T05:12:05.728Z,89.60
2018-02-19T05:14:32.171Z,89.60
2018-02-19T05:16:58.577Z,89.50
2018-02-19T05:19:24.997Z,89.70
2018-02-19T05:21:52.293Z,89.80
2018-02-19T05:24:18.715Z,89.60
2018-02-19T05:26:45.869Z,89.60
2018-02-19T05:29:13.019Z,89.60
2018-02-19T05:31:39.449Z,89.60
2018-02-19T05:34:06.606Z,89.60
2018-02-19T05:36:33.772Z,89.60
2018-02-19T05:39:00.343Z,89.60
2018-02-19T05:41:26.741Z,89.60
2018-02-19T05:43:54.241Z,89.70
2018-02-19T05:46:20.705Z,89.70
2018-02-19T05:48:47.168Z,89.70
2018-02-19T05:51:13.571Z,89.60
2018-02-19T05:53:40.051Z,89.20
2018-02-19T05:56:06.432Z,89.40
2018-02-19T05:58:32.983Z,89.60
2018-02-19T06:01:00.268Z,89.20
2018-02-19T06:03:26.745Z,89.10
2018-02-19T06:05:53.230Z,88.90
2018-02-19T06:08:19.803Z,88.90
2018-02-19T06:10:46.338Z,89.00
2018-02-19T06:13:12.792Z,88.80
2018-02-19T06:15:39.283Z,88.60
2018-02-19T06:18:05.726Z,88.50
2018-02-19T06:20:32.199Z,88.90
2018-02-19T06:22:58.616Z,88.90
2018-02-19T06:25:25.153Z,88.90
2018-02-19T06:27:51.615Z,88.90
2018-02-19T06:30:18.118Z,88.90
2018-02-19T06:32:44.886Z,89.40
2018-02-19T06:35:11.318Z,89.50
2018-02-19T06:37:37.739Z,89.50
2018-02-19T06:40:04.145Z,89.60
2018-02-19T06:42:30.656Z,89.60
2018-02-19T06:44:57.829Z,89.10
2018-02-19T06:47:24.248Z,89.10
2018-02-19T06:49:50.690Z,89.00
2018-02-19T06:52:17.091Z,88.90
2018-02-19T06:54:44.255Z,88.50
2018-02-19T06:57:10.687Z,88.40
2018-02-19T06:59:39.147Z,88.00
2018-02-19T07:02:05.663Z,87.80
2018-02-19T07:04:32.136Z,87.50
2018-02-19T07:06:58.566Z,87.50
2018-02-19T07:09:25.712Z,87.70
2018-02-19T07:11:52.157Z,87.70
2018-02-19T07:14:19.168Z,87.40
2018-02-19T07:16:45.561Z,86.90
2018-02-19T07:19:12.123Z,86.50
2018-02-19T07:21:38.586Z,86.30
2018-02-19T07:24:04.976Z,86.00
2018-02-19T07:26:31.488Z,86.40
2018-02-19T07:28:57.852Z,85.90
2018-02-19T07:31:24.247Z,85.10
2018-02-19T07:33:50.671Z,84.80
2018-02-19T07:36:17.082Z,84.80
2018-02-19T07:38:43.496Z,84.90
2018-02-19T07:41:09.927Z,84.70
2018-02-19T07:43:36.355Z,82.90
2018-02-19T07:46:02.757Z,81.90
2018-02-19T07:48:29.197Z,82.50
2018-02-19T07:50:55.619Z,82.90
2018-02-19T07:53:22.139Z,82.70
2018-02-19T07:55:49.292Z,81.90
2018-02-19T07:58:16.439Z,81.10
2018-02-19T08:00:43.581Z,80.40
2018-02-19T08:03:10.768Z,80.00
2018-02-19T08:05:37.233Z,80.00
2018-02-19T08:08:03.665Z,80.90
2018-02-19T08:10:30.195Z,80.10
2018-02-19T08:12:58.113Z,80.30
2018-02-19T08:15:24.540Z,80.30
2018-02-19T08:17:51.741Z,77.80
2018-02-19T08:20:18.167Z,77.80
2018-02-19T08:22:44.604Z,77.30
2018-02-19T08:25:11.017Z,77.90
2018-02-19T08:27:37.468Z,78.70
2018-02-19T08:30:04.007Z,78.30
2018-02-19T08:32:30.538Z,78.60
2018-02-19T08:34:57.311Z,78.10
2018-02-19T08:37:23.850Z,76.90
2018-02-19T08:39:50.593Z,77.80
2018-02-19T08:42:16.991Z,77.40
2018-02-19T08:44:43.386Z,78.20
2018-02-19T08:47:09.805Z,77.70
2018-02-19T08:49:36.197Z,75.60
2018-02-19T08:52:02.860Z,76.50
2018-02-19T08:54:29.306Z,75.00
2018-02-19T08:56:55.693Z,75.30
2018-02-19T08:59:22.102Z,75.30
2018-02-19T09:01:48.579Z,75.90
2018-02-19T09:04:17.012Z,75.40
2018-02-19T09:06:43.446Z,75.00
2018-02-19T09:09:09.950Z,74.50
2018-02-19T09:11:36.359Z,75.50
2018-02-19T09:14:02.768Z,74.50
2018-02-19T09:16:29.220Z,74.70
2018-02-19T09:18:55.616Z,73.60
2018-02-19T09:21:22.545Z,74.30
2018-02-19T09:23:48.969Z,74.10
2018-02-19T09:26:15.367Z,71.20
2018-02-19T09:28:42.817Z,71.90
2018-02-19T09:31:09.242Z,71.50
2018-02-19T09:33:35.652Z,72.20
2018-02-19T09:36:02.050Z,70.60
2018-02-19T09:38:28.508Z,70.30
2018-02-19T09:40:54.917Z,71.70
2018-02-19T09:43:21.330Z,72.40
2018-02-19T09:45:47.754Z,72.70
2018-02-19T09:48:14.173Z,70.30
2018-02-19T09:50:40.571Z,69.30
2018-02-19T09:53:07.051Z,69.40
2018-02-19T09:55:33.486Z,70.70
2018-02-19T09:57:59.890Z,72.20
2018-02-19T10:00:27.083Z,68.90
2018-02-19T10:02:53.490Z,69.50
2018-02-19T10:05:19.925Z,68.50
2018-02-19T10:07:47.107Z,68.20
2018-02-19T10:10:14.329Z,69.70
2018-02-19T10:12:40.794Z,69.60
2018-02-19T10:15:07.230Z,69.20
2018-02-19T10:17:33.639Z,67.70
2018-02-19T10:20:00.080Z,67.80
2018-02-19T10:22:26.535Z,66.40
2018-02-19T10:24:52.956Z,65.00
2018-02-19T10:27:19.373Z,65.10
2018-02-19T10:29:45.829Z,65.80
2018-02-19T10:32:12.252Z,63.20
2018-02-19T10:34:38.679Z,64.40
2018-02-19T10:37:05.149Z,63.80
2018-02-19T10:39:31.564Z,62.90
2018-02-19T10:41:57.983Z,61.80
2018-02-19T10:44:24.418Z,61.10
2018-02-19T10:46:50.936Z,61.10
2018-02-19T10:49:17.345Z,61.30
2018-02-19T10:51:44.551Z,61.40
2018-02-19T10:54:10.936Z,61.40
2018-02-19T10:56:37.409Z,61.20
2018-02-19T10:59:03.837Z,61.80
2018-02-19T11:01:30.322Z,62.40
2018-02-19T11:03:56.777Z,61.90
2018-02-19T11:06:23.976Z,61.10
2018-02-19T11:08:50.387Z,60.50
2018-02-19T11:11:16.829Z,59.80
2018-02-19T11:13:43.313Z,59.60
2018-02-19T11:16:09.699Z,58.00
2018-02-19T11:18:36.165Z,58.00
2018-02-19T11:21:02.639Z,58.70
2018-02-19T11:23:29.144Z,57.80
2018-02-19T11:25:55.625Z,57.90
2018-02-19T11:28:22.117Z,55.10
2018-02-19T11:30:48.544Z,55.90
2018-02-19T11:33:14.948Z,56.60
2018-02-19T11:35:41.397Z,57.20
2018-02-19T11:38:07.878Z,55.60
2018-02-19T11:40:34.331Z,55.70
2018-02-19T11:43:01.500Z,55.40
2018-02-19T11:45:27.952Z,55.40
2018-02-19T11:47:54.365Z,55.90
2018-02-19T11:50:20.756Z,53.70
2018-02-19T11:52:47.173Z,52.90
2018-02-19T11:55:13.596Z,53.20
2018-02-19T11:57:40.029Z,55.30
2018-02-19T12:00:06.483Z,56.60
2018-02-19T12:02:33.972Z,56.20
2018-02-19T12:05:01.104Z,57.10
2018-02-19T12:07:27.556Z,56.40
2018-02-19T12:09:53.982Z,56.90
2018-02-19T12:12:20.411Z,56.60
2018-02-19T12:14:46.817Z,58.70
2018-02-19T12:17:13.269Z,57.50
2018-02-19T12:19:39.743Z,57.00
2018-02-19T12:22:06.177Z,57.50
2018-02-19T12:24:32.632Z,58.80
2018-02-19T12:26:59.075Z,58.10
2018-02-19T12:29:25.499Z,59.40
2018-02-19T12:31:51.908Z,58.40
2018-02-19T12:34:19.064Z,59.90
2018-02-19T12:36:45.444Z,59.80
2018-02-19T12:39:11.944Z,62.10
2018-02-19T12:41:38.336Z,62.10
2018-02-19T12:44:04.738Z,61.30
2018-02-19T12:46:31.148Z,59.90
2018-02-19T12:48:57.604Z,59.50
2018-02-19T12:51:24.018Z,61.70
2018-02-19T12:53:50.437Z,63.30
2018-02-19T12:56:16.894Z,62.50
2018-02-19T12:58:43.355Z,64.00
2018-02-19T13:01:09.760Z,64.70
2018-02-19T13:03:36.201Z,63.60
2018-02-19T13:06:02.655Z,63.20
2018-02-19T13:08:29.125Z,63.00
2018-02-19T13:10:56.296Z,60.00
2018-02-19T13:13:22.729Z,60.00
2018-02-19T13:15:49.136Z,59.60
2018-02-19T13:18:15.562Z,60.10
2018-02-19T13:20:42.736Z,61.50
2018-02-19T13:23:09.160Z,61.40
2018-02-19T13:25:36.357Z,63.40
2018-02-19T13:28:02.768Z,63.20
2018-02-19T13:30:29.174Z,63.50
2018-02-19T13:32:55.584Z,64.30
2018-02-19T13:35:22.008Z,65.50
2018-02-19T13:37:48.438Z,65.80
2018-02-19T13:40:14.891Z,64.60
2018-02-19T13:42:41.325Z,63.30
2018-02-19T13:45:07.801Z,62.70
2018-02-19T13:47:34.940Z,65.80
2018-02-19T13:50:02.130Z,65.00
2018-02-19T13:52:28.556Z,65.00
2018-02-19T13:54:54.998Z,65.60
2018-02-19T13:57:21.457Z,64.90
2018-02-19T13:59:47.905Z,64.60
2018-02-19T14:02:14.340Z,66.00
2018-02-19T14:04:40.794Z,65.70
2018-02-19T14:07:07.916Z,69.10
2018-02-19T14:09:34.383Z,68.50
2018-02-19T14:12:00.814Z,69.50
2018-02-19T14:14:27.309Z,69.30
2018-02-19T14:16:53.708Z,68.40
2018-02-19T14:19:20.169Z,68.20
2018-02-19T14:21:46.608Z,67.80
2018-02-19T14:24:14.067Z,68.60
2018-02-19T14:26:40.491Z,68.50
2018-02-19T14:29:06.920Z,68.90
2018-02-19T14:31:33.426Z,69.70
2018-02-19T14:33:59.866Z,70.90
2018-02-19T14:36:26.271Z,71.50
2018-02-19T14:38:52.695Z,70.00
2018-02-19T14:41:19.871Z,70.10
2018-02-19T14:43:47.037Z,70.50
2018-02-19T14:46:13.486Z,70.40
2018-02-19T14:48:39.920Z,71.20
2018-02-19T14:51:06.378Z,71.30
2018-02-19T14:53:32.829Z,69.60
2018-02-19T14:55:59.262Z,68.80
2018-02-19T14:58:25.679Z,69.50
2018-02-19T15:00:52.226Z,70.70
2018-02-19T15:03:18.649Z,71.80
2018-02-19T15:05:45.098Z,70.30
2018-02-19T15:08:11.663Z,70.90
2018-02-19T15:10:38.125Z,70.50
2018-02-19T15:13:04.558Z,70.70
2018-02-19T15:15:31.003Z,70.80
2018-02-19T15:17:57.419Z,71.70
2018-02-19T15:20:30.843Z,71.40
2018-02-19T15:22:57.271Z,72.00
2018-02-19T15:25:23.736Z,73.30
2018-02-19T15:27:51.191Z,72.40
2018-02-19T15:30:17.789Z,72.40
2018-02-19T15:32:44.216Z,73.40
2018-02-19T15:35:11.363Z,73.70
2018-02-19T15:37:37.793Z,73.70
2018-02-19T15:40:04.964Z,73.80
2018-02-19T15:42:31.466Z,73.70
2018-02-19T15:44:58.665Z,74.10
2018-02-19T15:47:25.091Z,74.10
2018-02-19T15:49:51.532Z,73.50
2018-02-19T15:52:17.939Z,74.10
2018-02-19T15:54:44.380Z,74.00
2018-02-19T15:57:10.806Z,73.80
2018-02-19T15:59:37.248Z,74.10
2018-02-19T16:02:03.687Z,76.00
2018-02-19T16:04:30.140Z,75.40
2018-02-19T16:06:56.580Z,75.10
2018-02-19T16:09:23.006Z,74.50
2018-02-19T16:11:49.446Z,75.80
2018-02-19T16:14:15.876Z,76.80
2018-02-19T16:16:42.283Z,77.30
2018-02-19T16:19:17.838Z,77.50
2018-02-19T16:21:44.327Z,77.40
2018-02-19T16:24:10.893Z,77.60
2018-02-19T16:26:38.073Z,77.70
2018-02-19T16:29:04.504Z,77.60
2018-02-19T16:31:30.972Z,77.50
2018-02-19T16:33:57.378Z,77.70
2018-02-19T16:36:23.825Z,78.30
2018-02-19T16:38:52.299Z,78.50
2018-02-19T16:41:19.199Z,78.20
2018-02-19T16:43:46.366Z,77.50
2018-02-19T16:46:12.771Z,77.50
2018-02-19T16:48:39.202Z,77.60
2018-02-19T16:51:05.661Z,79.00
2018-02-19T16:53:32.788Z,80.10
2018-02-19T16:55:59.211Z,79.90
2018-02-19T16:58:25.593Z,79.80
2018-02-19T17:00:53.781Z,78.60
2018-02-19T17:03:20.188Z,78.50
2018-02-19T17:05:47.344Z,79.40
2018-02-19T17:08:14.499Z,79.50
2018-02-19T17:10:40.972Z,79.50
2018-02-19T17:13:07.382Z,80.10
2018-02-19T17:15:33.903Z,81.00
2018-02-19T17:18:00.315Z,80.80
2018-02-19T17:20:27.739Z,80.90
2018-02-19T17:22:54.139Z,80.90
2018-02-19T17:25:20.573Z,80.90
2018-02-19T17:27:47.070Z,81.10
2018-02-19T17:30:13.520Z,80.80
2018-02-19T17:32:40.670Z,81.10
2018-02-19T17:35:07.852Z,81.80
2018-02-19T17:37:34.308Z,81.80
2018-02-19T17:40:04.664Z,82.30
2018-02-19T17:42:31.128Z,82.40
2018-02-19T17:44:58.028Z,82.60
2018-02-19T17:47:25.273Z,82.00
2018-02-19T17:49:51.688Z,81.90
2018-02-19T17:52:19.144Z,82.90
2018-02-19T17:54:45.906Z,83.10
2018-02-19T17:57:12.441Z,83.40
2018-02-19T17:59:38.859Z,83.10
2018-02-19T18:02:05.309Z,82.70
2018-02-19T18:04:31.755Z,83.40
2018-02-19T18:06:58.944Z,84.10
2018-02-19T18:09:26.065Z,84.30
2018-02-19T18:11:52.519Z,84.10
2018-02-19T18:14:18.940Z,84.30
2018-02-19T18:16:46.140Z,83.10
2018-02-19T18:19:22.517Z,83.10
2018-02-19T18:21:48.941Z,82.70
2018-02-19T18:24:15.348Z,82.70
2018-02-19T18:26:42.490Z,83.00
2018-02-19T18:29:09.636Z,83.30
2018-02-19T18:31:36.116Z,83.30
2018-02-19T18:34:02.574Z,83.10
2018-02-19T18:36:29.008Z,83.10
2018-02-19T18:38:56.752Z,83.80
2018-02-19T18:41:23.160Z,83.40
2018-02-19T18:43:49.586Z,83.70
2018-02-19T18:46:16.727Z,84.60
2018-02-19T18:48:43.927Z,84.10
2018-02-19T18:51:10.376Z,84.10
2018-02-19T18:53:36.801Z,84.00
2018-02-19T18:56:03.233Z,84.10
2018-02-19T18:58:29.681Z,83.40
2018-02-19T19:00:56.524Z,84.10
2018-02-19T19:03:23.169Z,84.60
2018-02-19T19:05:49.706Z,84.30
2018-02-19T19:08:28.392Z,84.10
2018-02-19T19:10:54.858Z,84.60
2018-02-19T19:13:21.332Z,84.70
2018-02-19T19:15:48.481Z,84.80
2018-02-19T19:18:14.921Z,84.60
2018-02-19T19:20:41.388Z,84.40
2018-02-19T19:23:07.807Z,84.10
2018-02-19T19:25:34.221Z,84.20
2018-02-19T19:28:00.712Z,84.30
2018-02-19T19:30:27.145Z,84.60
2018-02-19T19:32:53.608Z,84.10
2018-02-19T19:35:20.025Z,84.40
2018-02-19T19:37:46.474Z,84.10
2018-02-19T19:40:14.364Z,84.00
2018-02-19T19:42:41.536Z,84.00
2018-02-19T19:45:07.957Z,83.90
2018-02-19T19:47:35.263Z,83.90
2018-02-19T19:50:01.939Z,83.90
2018-02-19T19:52:29.190Z,83.80
2018-02-19T19:54:56.373Z,83.80
2018-02-19T19:57:22.824Z,83.80
2018-02-19T19:59:49.261Z,83.90
2018-02-19T20:02:15.728Z,83.90
2018-02-19T20:04:42.188Z,84.00
2018-02-19T20:07:09.357Z,83.70
2018-02-19T20:09:35.837Z,83.70
2018-02-19T20:12:02.268Z,84.40
2018-02-19T20:14:28.731Z,84.50
2018-02-19T20:16:57.923Z,83.40
2018-02-19T20:19:25.092Z,83.00
2018-02-19T20:21:51.532Z,83.50
2018-02-19T20:24:18.012Z,83.10
2018-02-19T20:26:45.167Z,83.20
2018-02-19T20:29:11.600Z,83.10
2018-02-19T20:31:38.030Z,83.50
2018-02-19T20:34:04.452Z,83.10
2018-02-19T20:36:30.855Z,82.80
2018-02-19T20:38:57.335Z,82.50
2018-02-19T20:41:23.748Z,82.60
2018-02-19T20:43:50.168Z,82.60
2018-02-19T20:46:16.624Z,82.80
2018-02-19T20:48:43.017Z,83.10
2018-02-19T20:51:10.168Z,82.50
2018-02-19T20:53:37.287Z,82.60
2018-02-19T20:56:03.724Z,82.60
2018-02-19T20:58:30.180Z,83.50
2018-02-19T21:00:56.665Z,82.80
2018-02-19T21:03:23.211Z,82.10
2018-02-19T21:05:49.936Z,82.00
2018-02-19T21:08:16.510Z,82.00
2018-02-19T21:10:43.731Z,83.00
2018-02-19T21:16:07.272Z,84.40
2018-02-19T21:18:33.707Z,85.40
2018-02-19T21:21:00.904Z,85.70
2018-02-19T21:23:27.359Z,85.60
2018-02-19T21:25:53.786Z,86.00
2018-02-19T21:28:20.188Z,86.10
2018-02-19T21:30:46.628Z,86.40
2018-02-19T21:33:13.067Z,86.70
2018-02-19T21:35:39.489Z,86.60
2018-02-19T21:38:05.960Z,86.10
2018-02-19T21:40:33.178Z,87.00
2018-02-19T21:42:59.616Z,87.00
2018-02-19T21:45:26.067Z,87.10
2018-02-19T21:47:52.488Z,87.40
2018-02-19T21:50:19.164Z,87.10
2018-02-19T21:52:45.717Z,87.10
2018-02-19T21:55:12.222Z,87.20
2018-02-19T21:57:38.619Z,87.50
2018-02-19T22:00:05.073Z,87.80
2018-02-19T22:02:31.462Z,88.20
2018-02-19T22:05:00.645Z,88.60
2018-02-19T22:07:27.025Z,88.50
2018-02-19T22:09:53.488Z,88.50
2018-02-19T22:12:19.911Z,88.50
2018-02-19T22:14:46.719Z,88.80
2018-02-19T22:17:13.157Z,88.50
2018-02-19T22:19:39.629Z,88.30
2018-02-19T22:22:06.070Z,88.40
2018-02-19T22:24:33.278Z,89.40
2018-02-19T22:26:59.756Z,88.50
2018-02-19T22:29:26.178Z,88.10
2018-02-19T22:31:52.647Z,88.10
2018-02-19T22:34:19.052Z,88.10
2018-02-19T22:36:45.480Z,87.90
2018-02-19T22:39:11.880Z,87.60
2018-02-19T22:41:38.378Z,87.90
2018-02-19T22:44:04.776Z,88.00
2018-02-19T22:46:31.264Z,87.50
2018-02-19T22:48:57.672Z,87.30
2018-02-19T22:51:24.101Z,87.30
2018-02-19T22:53:50.507Z,87.60
2018-02-19T22:56:16.905Z,88.00
2018-02-19T22:58:44.051Z,88.00
2018-02-19T23:01:11.237Z,87.80
2018-02-19T23:03:37.635Z,87.80
2018-02-19T23:06:04.831Z,87.70
2018-02-19T23:08:31.173Z,87.60
2018-02-19T23:10:57.558Z,87.60
2018-02-19T23:13:24.684Z,87.90
2018-02-19T23:15:51.054Z,87.90
2018-02-19T23:18:17.454Z,87.70
2018-02-19T23:20:43.858Z,87.60
2018-02-19T23:23:10.259Z,87.80
2018-02-19T23:25:36.654Z,87.80
2018-02-19T23:28:03.045Z,87.70
2018-02-19T23:30:29.442Z,88.20
2018-02-19T23:32:56.570Z,87.30
2018-02-19T23:35:22.969Z,87.20
2018-02-19T23:37:49.344Z,87.30
2018-02-19T23:40:16.489Z,87.70
2018-02-19T23:42:42.854Z,87.70
2018-02-19T23:45:09.353Z,87.60
2018-02-19T23:47:35.698Z,87.70
2018-02-19T23:50:02.082Z,87.50
2018-02-19T23:52:28.488Z,87.40
2018-02-19T23:54:55.603Z,87.10
2018-02-19T23:57:21.987Z,87.00
2018-02-19T23:59:48.330Z,86.50
